Time;durP1;ratioP1;P1;durP2;ratioP2;P2;SDS_P1;SDS_P2;PMS_P1;PMS_P2;Temp;Humidity;BMP_temperature;BMP_pressure;BME280_temperature;BME280_humidity;BME280_pressure;Samples;Min_cycle;Max_cycle;Signal;HPM_P1;HPM_P2
2023/09/27 00:02:25;;;;;;;2.13;1.67;;;;;;;;;;5057552;28;20832;-49
2023/09/27 00:04:51;;;;;;;1.95;1.33;;;;;;;;;;5057759;28;20037;-46
2023/09/27 00:07:16;;;;;;;4.13;1.60;;;;;;;;;;5064715;28;20817;-49
2023/09/27 00:09:42;;;;;;;3.13;1.65;;;;;;;;;;5056238;28;20041;-50
2023/09/27 00:12:08;;;;;;;3.63;1.50;;;;;;;;;;5063263;28;20037;-49
2023/09/27 00:14:34;;;;;;;2.67;1.77;;;;;;;;;;5060875;28;20032;-49
2023/09/27 00:17:00;;;;;;;2.70;1.27;;;;;;;;;;5055340;28;20521;-49
2023/09/27 00:19:25;;;;;;;2.67;1.73;;;;;;;;;;5059553;28;20033;-49
2023/09/27 00:21:51;;;;;;;2.15;1.35;;;;;;;;;;5058903;28;20048;-50
2023/09/27 00:24:17;;;;;;;2.78;1.13;;;;;;;;;;5063995;28;20526;-48
2023/09/27 00:26:42;;;;;;;2.72;1.27;;;;;;;;;;5058767;28;20120;-49
2023/09/27 00:29:07;;;;;;;2.47;2.25;;;;;;;;;;5056752;28;20025;-47
2023/09/27 00:31:33;;;;;;;3.15;1.60;;;;;;;;;;5062371;28;20127;-49
2023/09/27 00:33:58;;;;;;;3.17;1.73;;;;;;;;;;5057657;28;20029;-46
2023/09/27 00:36:24;;;;;;;4.03;2.22;;;;;;;;;;5056653;28;20041;-49
2023/09/27 00:38:49;;;;;;;2.50;1.42;;;;;;;;;;5060581;28;20032;-47
2023/09/27 00:41:15;;;;;;;2.65;1.85;;;;;;;;;;5059140;28;20067;-48
2023/09/27 00:43:40;;;;;;;3.60;1.52;;;;;;;;;;5059626;28;20085;-45
2023/09/27 00:46:06;;;;;;;2.20;1.60;;;;;;;;;;5057082;28;20469;-48
2023/09/27 00:48:36;;;;;;;4.60;2.42;;;;;;;;;;5058105;28;20103;-49
2023/09/27 00:51:03;;;;;;;2.55;1.27;;;;;;;;;;5050926;28;20045;-50
2023/09/27 00:53:32;;;;;;;3.15;1.73;;;;;;;;;;5061737;28;20557;-50
2023/09/27 00:55:58;;;;;;;3.67;2.47;;;;;;;;;;5052222;28;20064;-46
2023/09/27 00:58:24;;;;;;;4.45;2.75;;;;;;;;;;5060466;28;20394;-48
2023/09/27 01:00:51;;;;;;;3.90;2.78;;;;;;;;;;5054674;28;20048;-46
2023/09/27 01:03:17;;;;;;;3.42;2.03;;;;;;;;;;5063427;28;20039;-50
2023/09/27 01:05:43;;;;;;;3.53;2.08;;;;;;;;;;5061469;28;20040;-48
2023/09/27 01:08:09;;;;;;;3.00;1.65;;;;;;;;;;5057135;28;20025;-47
2023/09/27 01:10:36;;;;;;;3.17;1.60;;;;;;;;;;5052628;28;20090;-47
2023/09/27 01:13:02;;;;;;;3.97;1.63;;;;;;;;;;5060796;28;20033;-48
2023/09/27 01:15:27;;;;;;;4.07;1.80;;;;;;;;;;5046178;28;20375;-49
2023/09/27 01:17:53;;;;;;;3.60;1.70;;;;;;;;;;5060891;28;20236;-49
2023/09/27 01:20:20;;;;;;;4.30;1.50;;;;;;;;;;5056393;28;20044;-48
2023/09/27 01:22:56;;;;;;;2.88;2.17;;;;;;;;;;5056808;28;20112;-49
2023/09/27 01:25:28;;;;;;;4.90;2.75;;;;;;;;;;5048610;28;20047;-48
2023/09/27 01:27:54;;;;;;;3.53;2.40;;;;;;;;;;5064690;28;20385;-48
2023/09/27 01:30:19;;;;;;;3.08;2.08;;;;;;;;;;5063073;28;20036;-47
2023/09/27 01:32:44;;;;;;;3.33;2.05;;;;;;;;;;5059385;28;20029;-45
2023/09/27 01:35:10;;;;;;;2.83;1.98;;;;;;;;;;5056053;28;20053;-51
2023/09/27 01:37:36;;;;;;;3.50;1.35;;;;;;;;;;5061391;28;20036;-51
2023/09/27 01:40:02;;;;;;;3.15;1.98;;;;;;;;;;5045919;28;20441;-50
2023/09/27 01:42:28;;;;;;;2.80;1.30;;;;;;;;;;5054878;28;20033;-48
2023/09/27 01:44:54;;;;;;;2.72;1.45;;;;;;;;;;5060630;28;20047;-46
2023/09/27 01:47:19;;;;;;;2.30;1.40;;;;;;;;;;5062330;28;20058;-51
2023/09/27 01:49:45;;;;;;;2.80;1.73;;;;;;;;;;5054513;28;20031;-49
2023/09/27 01:52:10;;;;;;;3.70;2.05;;;;;;;;;;5058022;28;20029;-51
2023/09/27 01:54:35;;;;;;;4.35;1.40;;;;;;;;;;5049416;28;20026;-50
2023/09/27 01:57:01;;;;;;;2.45;1.33;;;;;;;;;;5061120;28;20461;-46
2023/09/27 01:59:26;;;;;;;3.00;2.17;;;;;;;;;;5057374;28;20033;-48
2023/09/27 02:01:52;;;;;;;4.55;2.17;;;;;;;;;;5061039;28;20033;-48
2023/09/27 02:04:17;;;;;;;2.33;1.92;;;;;;;;;;5057110;28;20025;-49
2023/09/27 02:06:42;;;;;;;2.05;1.27;;;;;;;;;;5053892;28;20564;-48
2023/09/27 02:09:08;;;;;;;2.60;1.85;;;;;;;;;;5057164;28;20532;-48
2023/09/27 02:11:34;;;;;;;3.28;1.60;;;;;;;;;;5052841;28;20028;-49
2023/09/27 02:14:03;;;;;;;2.53;1.27;;;;;;;;;;5055973;28;20023;-46
2023/09/27 02:16:30;;;;;;;1.67;1.38;;;;;;;;;;5056794;28;20056;-47
2023/09/27 02:18:55;;;;;;;3.00;1.33;;;;;;;;;;5060292;28;20032;-50
2023/09/27 02:21:20;;;;;;;2.88;1.60;;;;;;;;;;5056601;28;20037;-51
2023/09/27 02:23:46;;;;;;;2.45;1.42;;;;;;;;;;5053302;28;20025;-46
2023/09/27 02:26:12;;;;;;;2.55;1.58;;;;;;;;;;5055408;28;20044;-49
2023/09/27 02:28:38;;;;;;;2.55;1.77;;;;;;;;;;5057676;28;20095;-47
2023/09/27 02:31:08;;;;;;;2.35;1.17;;;;;;;;;;5054902;28;20036;-50
2023/09/27 02:33:34;;;;;;;2.58;1.58;;;;;;;;;;5055132;28;20037;-52
2023/09/27 02:35:59;;;;;;;2.50;1.45;;;;;;;;;;5051408;28;20509;-48
2023/09/27 02:38:25;;;;;;;3.22;1.70;;;;;;;;;;5057795;28;20474;-49
2023/09/27 02:40:51;;;;;;;3.00;1.40;;;;;;;;;;5056753;28;20055;-49
2023/09/27 02:43:16;;;;;;;3.53;2.00;;;;;;;;;;5065537;28;20033;-46
2023/09/27 02:45:42;;;;;;;4.50;1.67;;;;;;;;;;5042683;28;20038;-46
2023/09/27 02:48:09;;;;;;;3.05;1.40;;;;;;;;;;5061263;28;20025;-51
2023/09/27 02:50:34;;;;;;;2.28;1.30;;;;;;;;;;5057692;28;20029;-47
2023/09/27 02:52:59;;;;;;;3.00;1.85;;;;;;;;;;5059464;28;20025;-47
2023/09/27 02:55:26;;;;;;;2.60;1.73;;;;;;;;;;5059230;28;20036;-50
2023/09/27 02:57:51;;;;;;;2.95;2.08;;;;;;;;;;5054035;28;20021;-49
2023/09/27 03:00:20;;;;;;;3.00;1.70;;;;;;;;;;5055533;28;20051;-46
2023/09/27 03:02:46;;;;;;;2.33;1.35;;;;;;;;;;5050727;28;20028;-47
2023/09/27 03:05:11;;;;;;;2.65;1.88;;;;;;;;;;5053361;28;20025;-51
2023/09/27 03:07:38;;;;;;;2.75;1.30;;;;;;;;;;5055200;28;20379;-49
2023/09/27 03:10:08;;;;;;;2.67;1.38;;;;;;;;;;5056386;28;20060;-49
2023/09/27 03:12:33;;;;;;;3.22;2.25;;;;;;;;;;5057898;28;20103;-48
2023/09/27 03:14:59;;;;;;;3.25;2.13;;;;;;;;;;5060933;28;20066;-47
2023/09/27 03:17:24;;;;;;;2.28;1.92;;;;;;;;;;5055351;28;20367;-47
2023/09/27 03:19:50;;;;;;;1.60;1.08;;;;;;;;;;5054472;28;20029;-48
2023/09/27 03:22:15;;;;;;;3.50;2.25;;;;;;;;;;5053631;28;20044;-47
2023/09/27 03:24:40;;;;;;;4.63;1.95;;;;;;;;;;5052108;28;20044;-47
2023/09/27 03:27:08;;;;;;;3.17;2.60;;;;;;;;;;5061622;28;20124;-50
2023/09/27 03:29:34;;;;;;;3.10;2.00;;;;;;;;;;5059537;28;20107;-49
2023/09/27 03:31:59;;;;;;;2.88;2.05;;;;;;;;;;5055533;28;20065;-47
2023/09/27 03:34:25;;;;;;;2.08;1.33;;;;;;;;;;5057005;28;20424;-50
2023/09/27 03:36:55;;;;;;;2.88;1.88;;;;;;;;;;5067526;28;20040;-47
2023/09/27 03:39:22;;;;;;;2.50;1.75;;;;;;;;;;5062097;28;20044;-47
2023/09/27 03:41:49;;;;;;;2.35;1.50;;;;;;;;;;5057982;28;20060;-45
2023/09/27 03:44:14;;;;;;;3.90;1.88;;;;;;;;;;5056526;28;20120;-48
2023/09/27 03:46:40;;;;;;;2.97;1.65;;;;;;;;;;5048709;28;20056;-47
2023/09/27 03:49:06;;;;;;;4.20;1.95;;;;;;;;;;5069188;28;20414;-52
2023/09/27 03:51:31;;;;;;;2.20;1.30;;;;;;;;;;5054832;28;20049;-48
2023/09/27 03:53:57;;;;;;;3.22;1.63;;;;;;;;;;5060115;28;20029;-53
2023/09/27 03:56:22;;;;;;;3.35;1.80;;;;;;;;;;5063246;28;20033;-51
2023/09/27 03:58:48;;;;;;;2.58;1.67;;;;;;;;;;5062123;28;20484;-51
2023/09/27 04:01:15;;;;;;;2.40;1.52;;;;;;;;;;5057027;28;20077;-48
2023/09/27 04:03:41;;;;;;;3.33;1.88;;;;;;;;;;5057630;28;20071;-51
2023/09/27 04:06:06;;;;;;;3.00;1.92;;;;;;;;;;5057804;28;20045;-49
2023/09/27 04:08:33;;;;;;;4.53;1.35;;;;;;;;;;5060338;28;20028;-47
2023/09/27 04:10:59;;;;;;;2.03;1.45;;;;;;;;;;5059989;28;20064;-50
2023/09/27 04:13:24;;;;;;;2.17;1.33;;;;;;;;;;5058444;28;20032;-50
2023/09/27 04:15:50;;;;;;;3.03;1.42;;;;;;;;;;5067518;28;20037;-48
2023/09/27 04:18:15;;;;;;;2.88;1.20;;;;;;;;;;5056276;28;20512;-46
2023/09/27 04:20:41;;;;;;;2.63;1.63;;;;;;;;;;5059598;28;20120;-49
2023/09/27 04:23:06;;;;;;;3.58;1.40;;;;;;;;;;5055969;28;20021;-50
2023/09/27 04:25:32;;;;;;;3.25;1.60;;;;;;;;;;5060179;28;20077;-48
2023/09/27 04:27:57;;;;;;;3.35;1.75;;;;;;;;;;5063060;28;20056;-52
2023/09/27 04:30:24;;;;;;;4.75;1.38;;;;;;;;;;5061180;28;20036;-50
2023/09/27 04:32:51;;;;;;;2.03;1.48;;;;;;;;;;5059242;28;20024;-51
2023/09/27 04:35:17;;;;;;;3.30;2.35;;;;;;;;;;5056627;28;20045;-49
2023/09/27 04:37:42;;;;;;;2.65;1.77;;;;;;;;;;5059920;28;20163;-49
2023/09/27 04:40:11;;;;;;;2.45;1.48;;;;;;;;;;5057174;28;20486;-46
2023/09/27 04:42:41;;;;;;;3.92;1.67;;;;;;;;;;5059244;28;20028;-50
2023/09/27 04:45:09;;;;;;;3.42;2.20;;;;;;;;;;5061680;28;20060;-50
2023/09/27 04:47:34;;;;;;;3.80;1.40;;;;;;;;;;5056323;28;20017;-51
2023/09/27 04:50:00;;;;;;;3.03;1.65;;;;;;;;;;5057838;28;20112;-50
2023/09/27 04:52:25;;;;;;;2.45;1.35;;;;;;;;;;5056174;28;20513;-49
2023/09/27 04:54:56;;;;;;;2.45;1.30;;;;;;;;;;5065392;28;20378;-47
2023/09/27 04:57:23;;;;;;;3.60;1.92;;;;;;;;;;5059576;28;20044;-48
2023/09/27 04:59:48;;;;;;;3.63;2.15;;;;;;;;;;5057700;28;20029;-49
2023/09/27 05:02:14;;;;;;;2.63;1.67;;;;;;;;;;5053906;28;20036;-49
2023/09/27 05:04:39;;;;;;;2.45;1.45;;;;;;;;;;5056559;28;20107;-49
2023/09/27 05:07:04;;;;;;;2.60;1.70;;;;;;;;;;5055149;28;20065;-50
2023/09/27 05:09:30;;;;;;;2.80;1.20;;;;;;;;;;5057013;28;20032;-48
2023/09/27 05:11:55;;;;;;;3.72;1.70;;;;;;;;;;5055937;28;20029;-49
2023/09/27 05:14:21;;;;;;;4.45;1.75;;;;;;;;;;5053587;28;20474;-46
2023/09/27 05:16:46;;;;;;;2.63;1.42;;;;;;;;;;5058611;28;20064;-47
2023/09/27 05:19:12;;;;;;;1.83;1.40;;;;;;;;;;5064271;28;20021;-49
2023/09/27 05:21:38;;;;;;;2.13;1.45;;;;;;;;;;5054647;28;20036;-53
2023/09/27 05:24:04;;;;;;;2.17;1.52;;;;;;;;;;5057527;28;20040;-47
2023/09/27 05:26:29;;;;;;;2.80;1.73;;;;;;;;;;5050881;28;20041;-47
2023/09/27 05:28:55;;;;;;;3.70;2.05;;;;;;;;;;5059065;28;20036;-49
2023/09/27 05:31:20;;;;;;;3.55;1.90;;;;;;;;;;5053206;28;20040;-50
2023/09/27 05:33:46;;;;;;;3.72;1.52;;;;;;;;;;5045848;28;20037;-48
2023/09/27 05:36:11;;;;;;;4.93;1.80;;;;;;;;;;5052863;28;20029;-50
2023/09/27 05:38:37;;;;;;;3.63;2.10;;;;;;;;;;5048771;28;20103;-46
2023/09/27 05:41:02;;;;;;;4.07;1.98;;;;;;;;;;5046833;28;20041;-48
2023/09/27 05:43:27;;;;;;;4.75;2.47;;;;;;;;;;5057393;28;20028;-50
2023/09/27 05:45:53;;;;;;;3.20;1.27;;;;;;;;;;5056620;28;20099;-47
2023/09/27 05:48:18;;;;;;;2.33;1.50;;;;;;;;;;5049358;28;20032;-51
2023/09/27 05:50:47;;;;;;;3.92;1.48;;;;;;;;;;5041462;28;20064;-47
2023/09/27 05:53:16;;;;;;;3.47;1.40;;;;;;;;;;5050009;28;20036;-47
2023/09/27 05:55:42;;;;;;;2.97;1.55;;;;;;;;;;5057325;28;20032;-48
2023/09/27 05:58:07;;;;;;;2.90;1.58;;;;;;;;;;5047837;28;20047;-50
2023/09/27 06:00:38;;;;;;;3.30;1.92;;;;;;;;;;5049961;28;20068;-48
2023/09/27 06:03:08;;;;;;;8.82;6.93;;;;;;;;;;5060968;28;20029;-48
2023/09/27 06:05:34;;;;;;;3.35;1.98;;;;;;;;;;5068052;28;20025;-49
2023/09/27 06:07:59;;;;;;;2.20;1.40;;;;;;;;;;5057927;28;20067;-48
2023/09/27 06:10:25;;;;;;;3.08;2.03;;;;;;;;;;5053548;28;20075;-49
2023/09/27 06:12:50;;;;;;;3.80;1.92;;;;;;;;;;5059183;28;20032;-47
2023/09/27 06:15:17;;;;;;;3.47;1.60;;;;;;;;;;5056725;28;20052;-50
2023/09/27 06:17:43;;;;;;;3.30;1.30;;;;;;;;;;5052280;28;20033;-49
2023/09/27 06:20:19;;;;;;;4.07;2.10;;;;;;;;;;5049417;28;20516;-49
2023/09/27 06:22:48;;;;;;;4.97;1.67;;;;;;;;;;5050727;28;20047;-50
2023/09/27 06:25:14;;;;;;;3.30;1.98;;;;;;;;;;5061513;28;20044;-50
2023/09/27 06:27:40;;;;;;;2.72;1.80;;;;;;;;;;5052941;28;20041;-47
2023/09/27 06:30:07;;;;;;;1.75;1.52;;;;;;;;;;5055438;28;20020;-47
2023/09/27 06:32:34;;;;;;;3.45;1.95;;;;;;;;;;5043493;28;20037;-48
2023/09/27 06:34:59;;;;;;;3.60;1.58;;;;;;;;;;5047968;28;20052;-49
2023/09/27 06:37:25;;;;;;;3.40;2.13;;;;;;;;;;5055121;28;20017;-51
2023/09/27 06:39:50;;;;;;;3.47;1.95;;;;;;;;;;5054249;28;20049;-49
2023/09/27 06:42:16;;;;;;;3.53;1.77;;;;;;;;;;5051257;28;20045;-47
2023/09/27 06:44:41;;;;;;;3.70;2.00;;;;;;;;;;5059076;28;20028;-50
2023/09/27 06:47:07;;;;;;;2.65;1.80;;;;;;;;;;5053708;28;20047;-49
2023/09/27 06:49:32;;;;;;;3.55;2.00;;;;;;;;;;5057934;28;20029;-45
2023/09/27 06:51:57;;;;;;;3.42;2.00;;;;;;;;;;5053939;28;20522;-47
2023/09/27 06:54:23;;;;;;;3.63;1.55;;;;;;;;;;5057482;28;20041;-50
2023/09/27 06:56:48;;;;;;;3.25;1.60;;;;;;;;;;5056681;28;20063;-49
2023/09/27 06:59:14;;;;;;;2.85;1.77;;;;;;;;;;5057036;28;20034;-49
2023/09/27 07:01:41;;;;;;;5.38;2.15;;;;;;;;;;5051035;28;20052;-46
2023/09/27 07:04:06;;;;;;;3.38;1.70;;;;;;;;;;5047697;28;20039;-52
2023/09/27 07:06:32;;;;;;;2.65;1.20;;;;;;;;;;5054823;28;20049;-49
2023/09/27 07:08:57;;;;;;;4.80;2.00;;;;;;;;;;5048170;28;20116;-50
2023/09/27 07:11:23;;;;;;;3.42;1.80;;;;;;;;;;5049328;28;20046;-50
2023/09/27 07:13:49;;;;;;;2.67;1.92;;;;;;;;;;5054324;28;20033;-51
2023/09/27 07:16:31;;;;;;;3.40;2.17;;;;;;;;;;5047819;28;20033;-47
2023/09/27 07:19:00;;;;;;;3.75;2.30;;;;;;;;;;5052710;28;20025;-49
2023/09/27 07:21:27;;;;;;;3.03;2.03;;;;;;;;;;5050068;28;20041;-49
2023/09/27 07:23:53;;;;;;;3.00;1.42;;;;;;;;;;5057904;28;20425;-51
2023/09/27 07:26:20;;;;;;;2.33;1.20;;;;;;;;;;5048627;28;20041;-51
2023/09/27 07:28:45;;;;;;;2.92;1.95;;;;;;;;;;5050647;28;20041;-49
2023/09/27 07:31:13;;;;;;;3.38;1.27;;;;;;;;;;5051182;28;20525;-50
2023/09/27 07:33:39;;;;;;;3.50;2.03;;;;;;;;;;5054699;28;20028;-49
2023/09/27 07:36:08;;;;;;;3.10;1.35;;;;;;;;;;5046423;28;20037;-49
2023/09/27 07:38:35;;;;;;;3.28;2.33;;;;;;;;;;5053279;28;20424;-48
2023/09/27 07:41:01;;;;;;;6.20;1.75;;;;;;;;;;5047295;28;20483;-50
2023/09/27 07:43:26;;;;;;;4.95;2.15;;;;;;;;;;5062856;28;20058;-48
2023/09/27 07:45:54;;;;;;;2.38;1.67;;;;;;;;;;5053154;28;20033;-51
2023/09/27 07:48:21;;;;;;;2.85;1.38;;;;;;;;;;5057656;28;20033;-47
2023/09/27 07:50:47;;;;;;;3.85;2.03;;;;;;;;;;5053414;28;20033;-52
2023/09/27 07:53:13;;;;;;;2.75;2.13;;;;;;;;;;5054200;28;20457;-51
2023/09/27 07:55:46;;;;;;;4.93;1.80;;;;;;;;;;5053729;28;20033;-49
2023/09/27 07:58:13;;;;;;;3.97;1.92;;;;;;;;;;5055407;28;20037;-49
2023/09/27 08:00:40;;;;;;;3.13;2.78;;;;;;;;;;5051360;28;20041;-49
2023/09/27 08:03:08;;;;;;;2.90;2.05;;;;;;;;;;5054580;28;20021;-49
2023/09/27 08:05:42;;;;;;;3.00;2.05;;;;;;;;;;5057917;28;20067;-47
2023/09/27 08:08:11;;;;;;;6.63;1.83;;;;;;;;;;5051733;28;20112;-48
2023/09/27 08:10:43;;;;;;;5.78;2.78;;;;;;;;;;5047659;28;20033;-49
2023/09/27 08:13:12;;;;;;;2.70;2.05;;;;;;;;;;5048799;28;20436;-48
2023/09/27 08:15:39;;;;;;;3.95;2.53;;;;;;;;;;5055699;28;20401;-47
2023/09/27 08:18:04;;;;;;;3.60;2.50;;;;;;;;;;5073875;28;20119;-51
2023/09/27 08:20:30;;;;;;;9.90;2.95;;;;;;;;;;5057181;28;20033;-49
2023/09/27 08:22:55;;;;;;;4.07;2.50;;;;;;;;;;5061078;28;20029;-49
2023/09/27 08:25:21;;;;;;;7.85;2.65;;;;;;;;;;5059087;28;20041;-51
2023/09/27 08:27:50;;;;;;;4.43;3.25;;;;;;;;;;5057974;28;20082;-51
2023/09/27 08:30:16;;;;;;;3.38;2.85;;;;;;;;;;5054393;28;20060;-52
2023/09/27 08:32:42;;;;;;;6.47;4.93;;;;;;;;;;5054575;28;20098;-51
2023/09/27 08:35:08;;;;;;;8.02;3.08;;;;;;;;;;5062107;28;20029;-49
2023/09/27 08:37:34;;;;;;;4.43;2.55;;;;;;;;;;5054188;28;20039;-49
2023/09/27 08:39:59;;;;;;;5.20;4.22;;;;;;;;;;5056483;28;20031;-50
2023/09/27 08:42:25;;;;;;;4.93;2.63;;;;;;;;;;5062506;28;20029;-51
2023/09/27 08:44:54;;;;;;;5.60;2.42;;;;;;;;;;5057998;28;20539;-47
2023/09/27 08:47:20;;;;;;;3.70;3.15;;;;;;;;;;5058380;28;20082;-51
2023/09/27 08:49:49;;;;;;;5.43;2.75;;;;;;;;;;5060976;28;20025;-53
2023/09/27 08:52:15;;;;;;;5.72;3.05;;;;;;;;;;5056855;28;20025;-51
2023/09/27 08:54:41;;;;;;;4.85;3.30;;;;;;;;;;5065088;28;20035;-49
2023/09/27 08:57:08;;;;;;;5.65;2.70;;;;;;;;;;5060413;28;20462;-50
2023/09/27 08:59:34;;;;;;;6.25;3.53;;;;;;;;;;5051803;28;20029;-53
2023/09/27 09:02:04;;;;;;;4.68;2.85;;;;;;;;;;5061834;28;20060;-48
2023/09/27 09:04:32;;;;;;;5.70;3.22;;;;;;;;;;5059198;28;20021;-51
2023/09/27 09:06:58;;;;;;;5.25;3.92;;;;;;;;;;5059276;28;20056;-50
2023/09/27 09:09:26;;;;;;;6.57;4.15;;;;;;;;;;5058981;28;20036;-49
2023/09/27 09:11:58;;;;;;;7.35;4.05;;;;;;;;;;5061597;28;20075;-49
2023/09/27 09:14:38;;;;;;;7.43;5.00;;;;;;;;;;5051732;28;20025;-51
2023/09/27 09:17:03;;;;;;;6.90;4.43;;;;;;;;;;5054553;28;20502;-51
2023/09/27 09:19:31;;;;;;;7.45;4.90;;;;;;;;;;5058936;28;20470;-52
2023/09/27 09:22:07;;;;;;;8.85;4.57;;;;;;;;;;5056745;28;20037;-53
2023/09/27 09:24:35;;;;;;;5.90;4.95;;;;;;;;;;5057833;28;20060;-49
2023/09/27 09:27:10;;;;;;;6.57;3.90;;;;;;;;;;5054327;28;20045;-51
2023/09/27 09:29:48;;;;;;;6.85;4.85;;;;;;;;;;5058398;28;20117;-50
2023/09/27 09:32:18;;;;;;;6.45;4.32;;;;;;;;;;5051901;28;20068;-52
2023/09/27 09:34:45;;;;;;;7.22;5.35;;;;;;;;;;5064042;28;20024;-50
2023/09/27 09:37:41;;;;;;;7.18;3.28;;;;;;;;;;5054062;28;20029;-51
2023/09/27 09:40:13;;;;;;;5.88;4.07;;;;;;;;;;5051319;28;20037;-51
2023/09/27 09:42:38;;;;;;;6.30;3.78;;;;;;;;;;5053723;28;20066;-51
2023/09/27 09:45:06;;;;;;;7.25;4.55;;;;;;;;;;5056769;28;20163;-48
2023/09/27 09:47:36;;;;;;;7.32;4.20;;;;;;;;;;5044170;28;20044;-48
2023/09/27 09:50:06;;;;;;;6.65;3.45;;;;;;;;;;5047004;28;22150;-51
2023/09/27 09:52:35;;;;;;;6.53;5.03;;;;;;;;;;5056266;28;20021;-51
2023/09/27 09:55:03;;;;;;;7.72;3.90;;;;;;;;;;5055339;28;20032;-51
2023/09/27 09:57:36;;;;;;;5.18;3.08;;;;;;;;;;5060052;28;20044;-50
2023/09/27 10:00:12;;;;;;;6.40;3.53;;;;;;;;;;5054497;28;20033;-52
2023/09/27 10:02:49;;;;;;;6.35;4.18;;;;;;;;;;5046025;28;20033;-53
2023/09/27 10:05:18;;;;;;;6.32;5.72;;;;;;;;;;5053183;28;20037;-51
2023/09/27 10:07:45;;;;;;;5.43;3.28;;;;;;;;;;5051334;28;20294;-48
2023/09/27 10:10:13;;;;;;;11.65;4.28;;;;;;;;;;5054330;28;20669;-53
2023/09/27 10:12:41;;;;;;;5.15;3.67;;;;;;;;;;5049731;28;20077;-48
2023/09/27 10:15:07;;;;;;;4.55;3.17;;;;;;;;;;5047165;28;20031;-50
2023/09/27 10:17:33;;;;;;;8.18;7.30;;;;;;;;;;5049108;28;20100;-48
2023/09/27 10:20:12;;;;;;;7.85;4.55;;;;;;;;;;5054714;28;20454;-48
2023/09/27 10:22:42;;;;;;;5.93;3.05;;;;;;;;;;5048908;28;20044;-49
2023/09/27 10:25:23;;;;;;;3.60;2.90;;;;;;;;;;5050506;28;20033;-50
2023/09/27 10:28:18;;;;;;;4.85;2.30;;;;;;;;;;5049137;28;20032;-51
2023/09/27 10:30:45;;;;;;;7.60;4.25;;;;;;;;;;5058934;28;20067;-52
2023/09/27 10:33:16;;;;;;;4.13;3.00;;;;;;;;;;5056714;28;20470;-46
2023/09/27 10:36:01;;;;;;;4.78;3.40;;;;;;;;;;5055240;28;20037;-50
2023/09/27 10:38:49;;;;;;;7.38;3.88;;;;;;;;;;5041875;28;20108;-50
2023/09/27 10:41:33;;;;;;;7.00;4.63;;;;;;;;;;5056154;28;20037;-51
2023/09/27 10:44:02;;;;;;;6.10;2.97;;;;;;;;;;5052499;28;20098;-52
2023/09/27 10:46:48;;;;;;;7.03;5.43;;;;;;;;;;5055121;28;20517;-48
2023/09/27 10:49:25;;;;;;;6.60;4.10;;;;;;;;;;5057174;28;20029;-49
2023/09/27 10:51:51;;;;;;;4.28;2.60;;;;;;;;;;5052143;28;20036;-50
2023/09/27 10:54:24;;;;;;;4.05;2.97;;;;;;;;;;5054185;28;20039;-50
2023/09/27 10:56:53;;;;;;;4.85;3.28;;;;;;;;;;5056333;28;20076;-52
2023/09/27 10:59:28;;;;;;;3.50;2.28;;;;;;;;;;5053206;28;20020;-47
2023/09/27 11:02:02;;;;;;;4.20;3.05;;;;;;;;;;5054950;28;20041;-50
2023/09/27 11:04:28;;;;;;;6.78;4.13;;;;;;;;;;5056313;28;20052;-50
2023/09/27 11:06:53;;;;;;;4.90;3.63;;;;;;;;;;5053786;28;20064;-51
2023/09/27 11:09:19;;;;;;;2.88;2.13;;;;;;;;;;5056759;28;20021;-50
2023/09/27 11:11:46;;;;;;;3.42;1.90;;;;;;;;;;5053244;28;20116;-52
2023/09/27 11:14:12;;;;;;;4.55;2.78;;;;;;;;;;5056834;28;20025;-49
2023/09/27 11:16:37;;;;;;;4.05;2.78;;;;;;;;;;5052367;28;20045;-45
2023/09/27 11:19:04;;;;;;;3.50;2.47;;;;;;;;;;5052989;28;20060;-50
2023/09/27 11:21:31;;;;;;;5.63;3.08;;;;;;;;;;5053740;28;20037;-53
2023/09/27 11:24:03;;;;;;;3.40;3.10;;;;;;;;;;5049842;28;20035;-48
2023/09/27 11:26:32;;;;;;;4.05;2.47;;;;;;;;;;5046461;28;20505;-53
2023/09/27 11:29:07;;;;;;;4.13;2.83;;;;;;;;;;5055645;28;20029;-50
2023/09/27 11:31:36;;;;;;;3.15;2.08;;;;;;;;;;5049894;28;20045;-50
2023/09/27 11:34:17;;;;;;;3.53;2.65;;;;;;;;;;5061250;28;20040;-53
2023/09/27 11:36:47;;;;;;;3.75;2.97;;;;;;;;;;5052667;28;20029;-52
2023/09/27 11:39:13;;;;;;;3.38;2.42;;;;;;;;;;5053572;28;20173;-51
2023/09/27 11:41:39;;;;;;;5.53;3.80;;;;;;;;;;5051100;28;20083;-48
2023/09/27 11:44:18;;;;;;;4.28;2.97;;;;;;;;;;5046438;28;20026;-47
2023/09/27 11:46:44;;;;;;;2.75;2.22;;;;;;;;;;5053225;28;20033;-48
2023/09/27 11:49:10;;;;;;;3.58;3.05;;;;;;;;;;5055805;28;20367;-50
2023/09/27 11:51:36;;;;;;;3.35;2.13;;;;;;;;;;5058856;28;20037;-51
2023/09/27 11:54:05;;;;;;;3.60;3.20;;;;;;;;;;5061198;28;20053;-51
2023/09/27 11:56:32;;;;;;;2.97;2.35;;;;;;;;;;5055025;28;20037;-51
2023/09/27 11:58:57;;;;;;;3.47;3.20;;;;;;;;;;5059684;28;20107;-49
2023/09/27 12:01:23;;;;;;;5.60;3.58;;;;;;;;;;5054378;28;20102;-50
2023/09/27 12:03:48;;;;;;;4.10;3.47;;;;;;;;;;5056654;28;20095;-47
2023/09/27 12:06:14;;;;;;;3.75;2.50;;;;;;;;;;5056527;28;20061;-48
2023/09/27 12:08:40;;;;;;;2.72;2.35;;;;;;;;;;5058228;28;20052;-51
2023/09/27 12:11:06;;;;;;;2.97;2.15;;;;;;;;;;5052688;28;20034;-49
2023/09/27 12:13:32;;;;;;;5.05;3.47;;;;;;;;;;5055288;28;20096;-53
2023/09/27 12:15:57;;;;;;;3.97;2.97;;;;;;;;;;5060917;28;20540;-48
2023/09/27 12:18:23;;;;;;;3.28;2.88;;;;;;;;;;5041971;28;20135;-52
2023/09/27 12:20:49;;;;;;;4.53;3.30;;;;;;;;;;5060081;28;20123;-52
2023/09/27 12:23:14;;;;;;;3.97;2.28;;;;;;;;;;5058087;28;20048;-48
2023/09/27 12:25:41;;;;;;;4.18;2.75;;;;;;;;;;5049606;28;20040;-50
2023/09/27 12:28:07;;;;;;;6.68;3.40;;;;;;;;;;5060124;28;20052;-49
2023/09/27 12:30:32;;;;;;;3.05;2.75;;;;;;;;;;5055790;28;20048;-50
2023/09/27 12:32:58;;;;;;;4.05;2.58;;;;;;;;;;5057767;28;20060;-50
2023/09/27 12:35:23;;;;;;;3.70;2.45;;;;;;;;;;5062135;28;20441;-49
2023/09/27 12:37:49;;;;;;;2.53;2.25;;;;;;;;;;5060403;28;20025;-52
2023/09/27 12:40:15;;;;;;;4.22;2.55;;;;;;;;;;5069009;28;20036;-48
2023/09/27 12:42:40;;;;;;;2.80;2.35;;;;;;;;;;5056327;28;20060;-49
2023/09/27 12:45:07;;;;;;;5.35;2.47;;;;;;;;;;5060792;28;20111;-51
2023/09/27 12:47:33;;;;;;;4.05;3.33;;;;;;;;;;5057238;28;20032;-50
2023/09/27 12:50:02;;;;;;;2.85;2.15;;;;;;;;;;5055931;28;20029;-50
2023/09/27 12:52:27;;;;;;;5.18;2.70;;;;;;;;;;5057860;28;20025;-51
2023/09/27 12:54:52;;;;;;;3.53;2.83;;;;;;;;;;5052712;28;20037;-50
2023/09/27 12:57:18;;;;;;;3.00;2.38;;;;;;;;;;5053202;28;20167;-53
2023/09/27 12:59:43;;;;;;;2.53;2.33;;;;;;;;;;5067499;28;20155;-50
2023/09/27 13:02:09;;;;;;;4.30;1.92;;;;;;;;;;5063761;28;20033;-49
2023/09/27 13:04:34;;;;;;;3.55;2.00;;;;;;;;;;5056337;28;20035;-47
2023/09/27 13:07:00;;;;;;;6.32;2.88;;;;;;;;;;5058865;28;20089;-47
2023/09/27 13:09:25;;;;;;;4.40;2.58;;;;;;;;;;5057356;28;20074;-48
2023/09/27 13:11:51;;;;;;;5.35;2.85;;;;;;;;;;5059215;28;20067;-49
2023/09/27 13:14:16;;;;;;;3.25;2.47;;;;;;;;;;5056542;28;20043;-47
2023/09/27 13:16:42;;;;;;;4.03;2.15;;;;;;;;;;5061458;28;20025;-50
2023/09/27 13:19:09;;;;;;;7.15;2.40;;;;;;;;;;5057257;28;20029;-50
2023/09/27 13:21:35;;;;;;;4.20;2.53;;;;;;;;;;5057836;28;20037;-51
2023/09/27 13:24:02;;;;;;;7.13;2.45;;;;;;;;;;5058608;28;20040;-46
2023/09/27 13:26:28;;;;;;;4.30;2.45;;;;;;;;;;5056508;28;20057;-47
2023/09/27 13:28:54;;;;;;;3.42;2.72;;;;;;;;;;5066755;28;20070;-50
2023/09/27 13:31:20;;;;;;;4.80;2.28;;;;;;;;;;5053705;28;20029;-49
2023/09/27 13:33:45;;;;;;;4.55;2.50;;;;;;;;;;5050237;28;20489;-47
2023/09/27 13:36:10;;;;;;;5.55;2.28;;;;;;;;;;5054695;28;20043;-48
2023/09/27 13:38:37;;;;;;;4.25;2.83;;;;;;;;;;5062519;28;20044;-47
2023/09/27 13:41:03;;;;;;;3.90;2.45;;;;;;;;;;5050022;28;20650;-47
2023/09/27 13:43:28;;;;;;;5.22;2.63;;;;;;;;;;5062619;28;20028;-49
2023/09/27 13:45:54;;;;;;;4.07;2.50;;;;;;;;;;5052071;28;20047;-52
2023/09/27 13:48:19;;;;;;;3.97;2.63;;;;;;;;;;5053065;28;20116;-46
2023/09/27 13:50:45;;;;;;;3.67;2.75;;;;;;;;;;5055422;28;20032;-50
2023/09/27 13:53:11;;;;;;;2.95;2.75;;;;;;;;;;5063234;28;20043;-49
2023/09/27 13:55:37;;;;;;;2.13;1.85;;;;;;;;;;5058919;28;20494;-49
2023/09/27 13:58:03;;;;;;;3.03;2.30;;;;;;;;;;5050899;28;20618;-46
2023/09/27 14:00:30;;;;;;;3.30;2.15;;;;;;;;;;5057564;28;20051;-49
2023/09/27 14:02:55;;;;;;;4.70;3.00;;;;;;;;;;5061815;28;20099;-50
2023/09/27 14:05:21;;;;;;;3.97;2.45;;;;;;;;;;5050003;28;20061;-48
2023/09/27 14:07:46;;;;;;;3.25;2.35;;;;;;;;;;5053437;28;20924;-47
2023/09/27 14:10:12;;;;;;;4.35;2.10;;;;;;;;;;5051312;28;20086;-47
2023/09/27 14:12:38;;;;;;;5.13;4.63;;;;;;;;;;5056382;28;20094;-49
2023/09/27 14:15:04;;;;;;;3.22;2.30;;;;;;;;;;5052481;28;20037;-48
2023/09/27 14:17:29;;;;;;;3.83;2.28;;;;;;;;;;5045372;28;20033;-48
2023/09/27 14:19:55;;;;;;;3.10;2.42;;;;;;;;;;5049304;28;20133;-49
2023/09/27 14:22:21;;;;;;;2.53;2.03;;;;;;;;;;5048411;28;20055;-48
2023/09/27 14:24:46;;;;;;;4.25;2.42;;;;;;;;;;5053368;28;20056;-47
2023/09/27 14:27:12;;;;;;;2.92;2.42;;;;;;;;;;5049120;28;20113;-49
2023/09/27 14:29:38;;;;;;;3.55;2.90;;;;;;;;;;5058994;28;20057;-49
2023/09/27 14:32:05;;;;;;;2.28;1.45;;;;;;;;;;5053686;28;20647;-47
2023/09/27 14:34:37;;;;;;;2.85;1.77;;;;;;;;;;5060595;28;20021;-50
2023/09/27 14:37:03;;;;;;;3.17;2.15;;;;;;;;;;5050207;28;20045;-49
2023/09/27 14:39:28;;;;;;;4.90;2.20;;;;;;;;;;5052343;28;20027;-48
2023/09/27 14:41:55;;;;;;;3.92;2.10;;;;;;;;;;5050568;28;20049;-49
2023/09/27 14:44:22;;;;;;;;;;;;;;;;;;5062460;28;20517;-52